Rijeka, Croatia

13:34 CET 24. Únor 2017 (GMT +0100)
Rijeka | | Change Station

Výška 279 ft 45.22 °N, 14.58 °E | Updated 4 minutes ago

Light Rain
Slabý déšť
52 °F
Pocit jako 52 °F
S
13
Vítr proměnlivý Vítr od jižní

Dnes
Vysoké -- | Nízké -- °F
--% Možnost srážek
Včera
Vysoké -- | Nízké -- °F
Precip. -- inčů
Tlak 29.77 inčů
Viditelnost 3.7 mílí
Zataženo Nemnoho 700 ft
Polojasno 3300 ft
Skoro zataženo 4600 ft
Rosný bod 50 °F
Vlhkost 94%
Dešťové srážky 0.00 inčů
Sněhová pokrývka Není k dispozici
6:48 AM 5:42 PM
Ubývající srpek, 5% visible
METAR LDRI 241230Z 18011KT 140V210 6000 -RA MIFG FEW007 SCT033 BKN046 11/10 Q1008
Tlak 29.77 inčů
Viditelnost 3.7 mílí
Zataženo Nemnoho 700 ft
Polojasno 3300 ft
Skoro zataženo 4600 ft
Rosný bod 50 °F
Vlhkost 94%
Dešťové srážky 0.00 inčů
Sněhová pokrývka Není k dispozici
6:48 AM 5:42 PM
Ubývající srpek, 5% visible
METAR LDRI 241230Z 18011KT 140V210 6000 -RA MIFG FEW007 SCT033 BKN046 11/10 Q1008

Get Your Daily Forecast Email!

Thanks for signing up!

Be on the lookout for a verification email in your inbox.

You'll start receiving the daily forecast at 8 AM.

×

10-Day Weather Forecast

×

Almanac

Astronomie

Feb. 24, 2017 Východ Západ
Skutečný čas
Občanský soumrak
Námořní soumrak
Astronomický soumrak
Měsíc
Délka denního světla
Délka dne
Tomorrow will be .
, % of the Moon is Illuminated

Dnešní extrémy

Nejvyšší hodnoty ve státě Nejnižší hodnoty ve státě

Community

WunderPhotos

Upload Photos

1,962,540 snímků staženo!

WunderBlog® & News

Nearby

Kvalita ovzduší

  Kvalita ovzduší Index kvality ovzduší Polutant
Not available.

Výška sněhu

Station Hloubka Nadmořská výška

Seizmická činnost

Město Distance Mag. Čas & datum
Minimální zobrazený rozsah je 2.5.

Pobřežní teplota vody

Lokalita Teplota

Stations

Poblíž povětrnostní stanice

Lokace stanice Tepl. Ochlazování větrem Rosný bod Vlhkost Vítr Precip. Výška Čas hlášení Typ